Time;durP1;ratioP1;P1;durP2;ratioP2;P2;SDS_P1;SDS_P2;PMS_P1;PMS_P2;Temp;Humidity;BMP_temperature;BMP_pressure;BME280_temperature;BME280_humidity;BME280_pressure;Samples;Min_cycle;Max_cycle;Signal;HPM_P1;HPM_P2
2022/08/22 00:00:21;;;;;;;11.52;4.72;;;21.50;99.90;;;21.91;67.72;101534.16;4824277;29;20054;-84
2022/08/22 00:03:14;;;;;;;11.38;5.25;;;21.40;99.90;;;21.68;69.03;101511.78;4824053;29;20137;-84
2022/08/22 00:06:06;;;;;;;12.02;5.05;;;21.20;99.90;;;21.85;69.27;101533.53;4823004;29;20058;-84
2022/08/22 00:08:46;;;;;;;9.52;4.88;;;21.30;99.90;;;21.51;68.72;101463.94;4824574;29;20046;-84
2022/08/22 00:11:26;;;;;;;8.95;4.68;;;21.30;99.90;;;21.91;70.08;101531.47;4824271;29;20139;-84
2022/08/22 00:14:00;;;;;;;12.57;5.55;;;21.40;99.90;;;21.91;70.14;101526.06;4824040;29;20050;-83
2022/08/22 00:16:41;;;;;;;11.45;5.13;;;21.40;99.90;;;22.01;69.85;101529.31;4823908;29;20061;-83
2022/08/22 00:19:20;;;;;;;12.77;5.53;;;21.50;99.90;;;22.15;69.05;101530.47;4823789;29;20046;-84
2022/08/22 00:21:58;;;;;;;12.75;5.55;;;21.60;99.90;;;22.30;68.50;101531.63;4824115;29;20078;-84
2022/08/22 00:24:33;;;;;;;11.50;5.40;;;21.70;99.90;;;22.38;68.04;101535.78;4823879;29;20047;-84
2022/08/22 00:27:06;;;;;;;11.05;5.15;;;21.90;99.90;;;22.48;67.67;101540.75;4823998;29;20527;-84
2022/08/22 00:29:40;;;;;;;15.38;5.28;;;21.90;99.90;;;22.44;67.29;101540.03;4827026;29;20386;-84
2022/08/22 00:32:19;;;;;;;11.93;4.85;;;22.00;99.90;;;22.50;67.29;101536.19;4826968;29;20042;-83
2022/08/22 00:34:56;;;;;;;8.45;5.07;;;22.00;99.90;;;22.51;67.15;101538.84;4827492;29;20106;-85
2022/08/22 00:37:33;;;;;;;10.68;5.22;;;22.10;99.90;;;22.55;66.96;101532.34;4827508;29;20047;-84
2022/08/22 00:40:20;;;;;;;12.80;5.15;;;22.10;99.90;;;22.58;66.63;101532.25;4827326;29;20051;-83
2022/08/22 00:43:13;;;;;;;11.98;5.10;;;22.10;99.90;;;22.59;66.54;101523.22;4827409;29;20055;-85
2022/08/22 00:46:13;;;;;;;11.70;5.15;;;22.10;99.90;;;22.64;66.54;101531.13;4826832;29;20468;-81
2022/08/22 00:49:11;;;;;;;16.33;5.25;;;22.20;99.90;;;22.25;66.31;101469.84;4826868;29;20114;-81
2022/08/22 00:52:15;;;;;;;9.75;5.22;;;22.20;99.90;;;22.65;66.39;101522.94;4826908;29;20050;-84
2022/08/22 00:55:04;;;;;;;10.07;5.38;;;22.20;99.90;;;22.67;66.16;101523.75;4826703;29;20062;-84
2022/08/22 00:57:57;;;;;;;11.20;5.18;;;22.20;99.90;;;22.66;66.07;101529.22;4825706;29;20607;-84
2022/08/22 01:00:28;;;;;;;12.68;4.57;;;22.20;99.90;;;22.69;66.07;101539.88;4826494;29;20099;-84
2022/08/22 01:03:31;;;;;;;11.45;5.13;;;22.20;99.90;;;22.73;65.91;101534.28;4826696;29;20051;-85
2022/08/22 01:06:23;;;;;;;10.82;5.20;;;22.20;99.90;;;22.75;66.01;101545.00;4825489;29;20059;-84
2022/08/22 01:09:07;;;;;;;14.40;5.78;;;22.30;99.90;;;22.80;65.29;101543.00;4826656;29;20099;-85
2022/08/22 01:12:19;;;;;;;12.65;5.30;;;22.30;99.90;;;22.58;65.45;101531.38;4826444;29;20046;-84
2022/08/22 01:14:54;;;;;;;12.57;5.25;;;22.30;99.90;;;22.02;65.61;101428.66;4826630;29;20043;-85
2022/08/22 01:17:54;;;;;;;15.73;5.88;;;22.20;99.90;;;22.58;66.13;101516.06;4825329;29;20062;-85
2022/08/22 01:20:56;;;;;;;11.90;5.38;;;22.20;99.90;;;22.68;66.37;101532.75;4826153;29;20383;-85
2022/08/22 01:24:25;;;;;;;14.88;4.85;;;22.20;99.90;;;22.64;66.18;101533.81;4826157;29;20046;-83
2022/08/22 01:27:33;;;;;;;14.70;5.65;;;22.20;99.90;;;22.66;66.25;101538.22;4826199;29;20095;-85
2022/08/22 01:30:52;;;;;;;14.52;5.85;;;22.20;99.90;;;22.62;66.21;101539.28;4815035;29;20454;-85
2022/08/22 01:34:10;;;;;;;16.23;5.28;;;22.20;99.90;;;22.64;66.42;101541.91;4810350;29;20532;-85
2022/08/22 01:37:03;;;;;;;12.02;5.50;;;22.20;99.90;;;22.61;66.26;101539.34;4826196;29;20054;-85
2022/08/22 01:40:17;;;;;;;12.82;5.80;;;22.20;99.90;;;22.61;66.20;101542.06;4826117;29;20050;-85
2022/08/22 01:43:09;;;;;;;15.98;5.72;;;22.20;99.90;;;22.62;66.66;101546.50;4824556;29;20123;-84
2022/08/22 01:46:13;;;;;;;11.43;5.50;;;22.10;99.90;;;22.25;66.48;101480.63;4826376;29;20050;-85
2022/08/22 01:48:55;;;;;;;17.05;5.68;;;22.20;99.90;;;22.58;66.85;101544.88;4825766;29;20074;-85
2022/08/22 01:51:32;;;;;;;14.25;6.03;;;22.10;99.90;;;22.58;66.73;101543.06;4825659;29;20054;-85
2022/08/22 01:54:09;;;;;;;15.30;5.38;;;22.20;99.90;;;22.58;66.84;101542.16;4824711;29;20496;-85
2022/08/22 01:56:45;;;;;;;15.30;5.40;;;22.10;99.90;;;22.49;67.11;101529.06;4825658;29;20050;-83
2022/08/22 01:59:23;;;;;;;11.55;5.53;;;22.10;99.90;;;22.57;67.05;101533.19;4825788;29;20074;-85
2022/08/22 02:02:20;;;;;;;11.77;5.55;;;22.10;99.90;;;22.62;67.11;101531.19;4825871;29;20057;-85
2022/08/22 02:04:57;;;;;;;8.48;4.90;;;22.10;99.90;;;22.61;66.98;101534.81;4825525;29;20057;-86
2022/08/22 02:07:32;;;;;;;12.57;5.13;;;22.10;99.90;;;22.65;67.10;101536.44;4824780;29;20386;-85
2022/08/22 02:10:10;;;;;;;16.55;5.53;;;22.20;99.90;;;22.64;66.84;101536.50;4825488;29;20386;-86
2022/08/22 02:12:45;;;;;;;12.43;6.05;;;22.20;99.90;;;22.27;66.89;101465.28;4825886;29;20057;-85
2022/08/22 02:15:21;;;;;;;13.57;5.75;;;22.20;99.90;;;22.62;66.76;101533.00;4825335;29;20050;-83
2022/08/22 02:18:03;;;;;;;16.00;5.95;;;22.20;99.90;;;22.57;67.01;101535.03;4825329;29;20078;-85
2022/08/22 02:20:39;;;;;;;13.95;5.55;;;22.20;99.90;;;22.55;67.24;101526.94;4825283;29;20046;-85
2022/08/22 02:23:25;;;;;;;15.13;5.90;;;22.10;99.90;;;22.49;67.21;101521.84;4825274;29;20054;-85
2022/08/22 02:26:05;;;;;;;11.27;5.80;;;22.10;99.90;;;22.54;67.27;101521.63;4825168;29;20051;-86
2022/08/22 02:28:47;;;;;;;11.15;5.35;;;22.10;99.90;;;22.55;67.40;101526.09;4825262;29;20102;-86
2022/08/22 02:31:38;;;;;;;11.80;5.43;;;22.10;99.90;;;22.53;67.10;101517.19;4824236;29;20434;-84
2022/08/22 02:34:33;;;;;;;12.95;5.43;;;22.10;99.90;;;22.58;67.10;101516.06;4825780;29;20400;-85
2022/08/22 02:37:11;;;;;;;10.38;5.25;;;22.10;99.90;;;22.48;67.12;101514.69;4825148;29;20080;-85
2022/08/22 02:39:50;;;;;;;12.25;5.82;;;22.10;99.90;;;22.51;67.21;101522.66;4824950;29;20120;-86
2022/08/22 02:42:28;;;;;;;11.93;5.68;;;22.10;99.90;;;22.52;67.08;101518.13;4825276;29;20050;-85
2022/08/22 02:45:06;;;;;;;12.10;5.43;;;22.10;99.90;;;22.48;67.18;101524.59;4825007;29;20046;-85
2022/08/22 02:47:42;;;;;;;14.35;5.85;;;22.10;99.90;;;22.47;67.38;101517.44;4823901;29;20476;-85
2022/08/22 02:50:19;;;;;;;12.80;5.43;;;22.00;99.90;;;22.48;67.30;101524.59;4824974;29;20408;-85
2022/08/22 02:52:58;;;;;;;13.63;6.20;;;22.00;99.90;;;22.42;67.73;101521.22;4824862;29;20103;-85
2022/08/22 02:55:43;;;;;;;10.52;5.43;;;22.00;99.90;;;22.37;67.74;101523.25;4825127;29;20043;-85
2022/08/22 02:58:25;;;;;;;12.52;5.95;;;21.90;99.90;;;22.35;68.05;101510.78;4824733;29;20050;-83
2022/08/22 03:01:23;;;;;;;15.20;6.10;;;21.90;99.90;;;22.34;68.25;101511.69;4824630;29;20070;-85
2022/08/22 03:04:17;;;;;;;12.10;5.65;;;21.90;99.90;;;22.24;68.14;101508.50;4825032;29;20089;-86
2022/08/22 03:07:05;;;;;;;15.00;6.50;;;21.90;99.90;;;22.21;68.46;101500.56;4823686;29;20103;-86
2022/08/22 03:09:40;;;;;;;15.32;6.43;;;21.80;99.90;;;22.10;68.45;101485.78;4824719;29;20107;-85
2022/08/22 03:12:20;;;;;;;17.27;6.75;;;21.80;99.90;;;22.04;69.11;101481.53;4823652;29;20058;-82
2022/08/22 03:14:58;;;;;;;13.50;6.35;;;21.60;99.90;;;22.11;68.79;101488.41;4824567;29;20103;-82
2022/08/22 03:17:32;;;;;;;12.13;6.07;;;21.70;99.90;;;22.09;68.99;101490.28;4824481;29;20051;-85
2022/08/22 03:20:09;;;;;;;11.02;6.13;;;21.70;99.90;;;21.66;69.15;101411.31;4824630;29;20454;-85
2022/08/22 03:22:44;;;;;;;14.57;6.53;;;21.60;99.90;;;21.65;69.58;101461.59;4824499;29;20457;-85
2022/08/22 03:25:26;;;;;;;15.07;6.05;;;21.50;99.90;;;21.85;69.90;101479.66;4824442;29;20054;-85
2022/08/22 03:28:01;;;;;;;12.95;6.30;;;21.40;99.90;;;21.82;69.93;101472.59;4824408;29;20074;-84
2022/08/22 03:30:37;;;;;;;11.77;6.32;;;21.40;99.90;;;21.69;70.01;101473.09;4823403;29;20079;-84
2022/08/22 03:33:19;;;;;;;15.45;6.75;;;21.40;99.90;;;21.55;70.44;101477.25;4824361;29;20458;-85
2022/08/22 03:36:02;;;;;;;14.48;6.53;;;21.20;99.90;;;21.56;70.76;101475.44;4824564;29;20046;-85
2022/08/22 03:38:52;;;;;;;19.42;6.57;;;21.20;99.90;;;21.30;71.53;101476.44;4824299;29;20074;-84
2022/08/22 03:41:48;;;;;;;17.58;7.18;;;21.00;99.90;;;21.05;71.96;101455.91;4824471;29;20528;-85
2022/08/22 03:45:02;;;;;;;13.88;6.82;;;20.80;99.90;;;21.13;72.36;101476.22;4816143;29;20066;-85
2022/08/22 03:48:11;;;;;;;12.82;6.57;;;20.70;99.90;;;21.15;72.45;101476.16;4808996;29;20086;-85
2022/08/22 03:51:13;;;;;;;13.15;6.40;;;20.70;99.90;;;21.10;72.51;101472.78;4824383;29;20051;-85
2022/08/22 03:54:17;;;;;;;17.20;6.63;;;20.70;99.90;;;20.97;73.08;101477.69;4824190;29;20203;-85
2022/08/22 03:57:46;;;;;;;17.60;7.38;;;20.60;99.90;;;20.82;73.50;101482.75;4823962;29;20558;-85
2022/08/22 04:00:37;;;;;;;14.07;6.28;;;20.50;99.90;;;20.52;74.52;101474.88;4824010;29;20074;-85
2022/08/22 04:03:39;;;;;;;17.08;8.05;;;20.30;99.90;;;20.42;75.32;101483.34;4824338;29;20059;-85
2022/08/22 04:06:58;;;;;;;15.40;7.80;;;20.10;99.90;;;20.37;75.70;101486.16;4823823;29;20086;-80
2022/08/22 04:10:15;;;;;;;15.15;6.95;;;19.90;99.90;;;20.28;76.50;101488.31;4827736;29;20111;-77
2022/08/22 04:13:04;;;;;;;16.88;6.78;;;19.80;99.90;;;19.96;76.79;101440.09;4823325;29;20094;-76
2022/08/22 04:16:14;;;;;;;12.45;6.45;;;19.70;99.90;;;20.45;76.26;101491.28;4827345;29;20125;-78
2022/08/22 04:19:24;;;;;;;14.75;7.78;;;19.90;99.90;;;20.55;75.97;101490.91;4827549;29;20099;-77
2022/08/22 04:22:14;;;;;;;15.23;7.13;;;20.10;99.90;;;20.66;75.68;101496.78;4827006;29;20568;-75
2022/08/22 04:25:04;;;;;;;16.20;6.80;;;20.20;99.90;;;20.79;75.20;101496.34;4827125;29;20050;-76
2022/08/22 04:27:43;;;;;;;12.77;7.15;;;20.30;99.90;;;20.88;74.80;101501.38;4827109;29;20051;-76
2022/08/22 04:30:23;;;;;;;12.43;6.25;;;20.40;99.90;;;20.38;74.33;101407.28;4827244;29;20062;-74
2022/08/22 04:33:01;;;;;;;13.07;7.32;;;20.50;99.90;;;20.80;74.44;101474.75;4827581;29;20058;-74
2022/08/22 04:35:34;;;;;;;13.80;5.97;;;20.50;99.90;;;20.83;74.02;101471.09;4827431;29;20061;-74
2022/08/22 04:38:12;;;;;;;13.55;6.50;;;20.60;99.90;;;21.12;73.65;101500.47;4826864;29;20099;-74
2022/08/22 04:40:47;;;;;;;11.90;6.32;;;20.70;99.90;;;21.12;73.52;101511.25;4826816;29;20054;-74
2022/08/22 04:43:23;;;;;;;14.27;6.65;;;20.70;99.90;;;21.12;73.50;101511.25;4826823;29;20111;-74
2022/08/22 04:45:58;;;;;;;14.38;7.03;;;20.70;99.90;;;21.13;73.60;101499.56;4827065;29;20122;-74
2022/08/22 04:48:33;;;;;;;13.23;6.22;;;20.70;99.90;;;21.14;73.61;101501.31;4826755;29;20103;-74
2022/08/22 04:51:05;;;;;;;14.35;6.55;;;20.70;99.90;;;21.17;73.39;101509.28;4826876;29;20503;-74
2022/08/22 04:54:17;;;;;;;14.95;6.65;;;20.70;99.90;;;21.27;73.04;101513.38;4825534;29;20058;-74
2022/08/22 04:57:06;;;;;;;16.92;6.20;;;20.80;99.90;;;21.27;72.97;101513.38;4826755;29;20076;-74
2022/08/22 04:59:35;;;;;;;13.85;6.95;;;20.80;99.90;;;21.30;72.67;101521.31;4827088;29;20042;-73
2022/08/22 05:02:09;;;;;;;12.38;7.07;;;20.80;99.90;;;21.30;72.53;101514.13;4826320;29;20042;-73
2022/08/22 05:04:42;;;;;;;13.15;6.57;;;20.90;99.90;;;21.38;72.53;101522.81;4826417;29;20046;-73
2022/08/22 05:07:15;;;;;;;13.82;6.85;;;20.90;99.90;;;21.39;72.49;101527.22;4826684;29;20058;-73
2022/08/22 05:09:49;;;;;;;18.55;7.20;;;20.90;99.90;;;21.36;72.72;101531.84;4826614;29;20054;-73
2022/08/22 05:12:24;;;;;;;13.65;7.13;;;20.90;99.90;;;21.28;72.56;101529.47;4826385;29;20087;-73
2022/08/22 05:15:03;;;;;;;16.52;6.75;;;20.90;99.90;;;21.43;72.28;101530.69;4826235;29;20107;-73
2022/08/22 05:17:34;;;;;;;19.50;6.88;;;21.00;99.90;;;21.45;72.23;101528.81;4826547;29;20404;-73
2022/08/22 05:20:10;;;;;;;14.32;6.85;;;21.00;99.90;;;21.45;72.10;101527.00;4826096;29;20044;-73
2022/08/22 05:22:44;;;;;;;11.05;6.85;;;21.00;99.90;;;21.44;72.37;101546.78;4826024;29;20046;-73
2022/08/22 05:25:19;;;;;;;18.45;6.97;;;21.00;99.90;;;21.50;72.08;101513.38;4825085;29;20573;-72
2022/08/22 05:27:52;;;;;;;14.88;7.18;;;21.00;99.90;;;21.46;72.10;101519.81;4825944;29;20134;-73
2022/08/22 05:30:28;;;;;;;14.43;7.05;;;21.00;99.90;;;21.47;72.30;101516.16;4825957;29;20110;-73
2022/08/22 05:33:09;;;;;;;13.85;7.32;;;21.00;99.90;;;21.50;72.22;101527.69;4826182;29;20099;-73
2022/08/22 05:35:43;;;;;;;13.38;7.10;;;21.00;99.90;;;21.46;72.27;101525.19;4826461;29;20043;-73
2022/08/22 05:38:26;;;;;;;12.43;7.20;;;21.00;99.90;;;21.50;72.32;101537.59;4825922;29;20060;-73
2022/08/22 05:41:05;;;;;;;14.52;7.18;;;21.00;99.90;;;21.49;72.12;101525.94;4826403;29;20050;-72
2022/08/22 05:43:43;;;;;;;15.35;7.00;;;21.10;99.90;;;21.29;71.98;101480.06;4825799;29;20050;-73
2022/08/22 05:46:21;;;;;;;14.48;7.13;;;21.10;99.90;;;21.58;71.91;101523.84;4825770;29;20404;-72
2022/08/22 05:48:58;;;;;;;17.25;7.30;;;21.10;99.90;;;21.55;71.79;101531.09;4825677;29;20141;-71
2022/08/22 05:51:36;;;;;;;16.38;7.03;;;21.10;99.90;;;21.56;71.89;101529.28;4825899;29;20062;-73
2022/08/22 05:54:18;;;;;;;13.20;7.30;;;21.10;99.90;;;21.56;72.19;101542.75;4825606;29;20077;-72
2022/08/22 05:56:54;;;;;;;16.95;7.68;;;21.10;99.90;;;21.56;72.41;101540.06;4825570;29;20106;-74
2022/08/22 05:59:29;;;;;;;13.85;7.20;;;21.10;99.90;;;21.51;72.28;101531.25;4825710;29;20058;-73
2022/08/22 06:02:03;;;;;;;17.23;7.47;;;21.20;99.90;;;21.68;72.60;101547.63;4825274;29;20417;-73
2022/08/22 06:04:39;;;;;;;17.92;6.97;;;21.20;99.90;;;21.75;72.82;101526.72;4825709;29;20050;-73
2022/08/22 06:07:16;;;;;;;14.18;7.30;;;21.30;99.90;;;22.13;72.26;101544.94;4825497;29;20046;-73
2022/08/22 06:10:21;;;;;;;15.32;6.50;;;21.60;99.90;;;22.35;71.04;101549.41;4825404;29;20084;-73
2022/08/22 06:12:59;;;;;;;14.88;7.32;;;21.80;99.90;;;22.47;70.21;101556.09;4825534;29;20127;-73
2022/08/22 06:15:41;;;;;;;12.35;7.15;;;22.00;99.90;;;22.60;69.92;101545.69;4825323;29;20462;-73
2022/08/22 06:18:16;;;;;;;12.90;6.97;;;22.20;99.90;;;22.78;69.49;101547.59;4825223;29;20454;-73
2022/08/22 06:20:51;;;;;;;13.73;6.90;;;22.30;99.90;;;22.98;68.58;101553.84;4825269;29;20458;-73
2022/08/22 06:23:25;;;;;;;12.13;6.70;;;22.50;99.90;;;23.12;67.84;101555.91;4825108;29;20059;-73
2022/08/22 06:25:57;;;;;;;12.13;6.65;;;22.60;99.90;;;23.19;67.22;101550.16;4823498;29;20474;-73
2022/08/22 06:28:36;;;;;;;15.07;7.13;;;22.80;99.90;;;23.05;67.23;101552.63;4825452;29;20576;-73
2022/08/22 06:31:27;;;;;;;13.77;6.72;;;22.70;99.90;;;22.86;68.86;101546.28;4825149;29;20051;-73
2022/08/22 06:34:00;;;;;;;17.33;7.20;;;22.50;99.90;;;22.93;67.46;101528.00;4825077;29;20058;-73
2022/08/22 06:36:32;;;;;;;14.52;7.63;;;22.60;99.90;;;22.62;67.96;101554.56;4825409;29;20061;-65
2022/08/22 06:39:15;;;;;;;20.88;7.40;;;22.30;99.90;;;22.77;68.62;101549.41;4825040;29;20050;-64
2022/08/22 06:41:52;;;;;;;14.50;7.47;;;22.40;99.90;;;22.63;68.18;101545.56;4824889;29;20058;-67
2022/08/22 06:44:27;;;;;;;12.98;6.95;;;22.20;99.90;;;22.47;69.21;101548.00;4824960;29;20054;-67
2022/08/22 06:47:01;;;;;;;16.08;7.53;;;22.10;99.90;;;22.08;70.57;101542.47;4824902;29;20050;-67
2022/08/22 06:49:33;;;;;;;16.10;7.30;;;21.70;99.90;;;21.90;71.35;101540.50;4825097;29;20074;-66
2022/08/22 06:52:07;;;;;;;15.30;8.27;;;21.50;99.90;;;22.09;70.66;101532.53;4825282;29;20066;-67
2022/08/22 06:54:40;;;;;;;14.98;7.90;;;21.60;99.90;;;22.20;69.98;101520.38;4825032;29;20054;-66
2022/08/22 06:57:30;;;;;;;13.80;7.50;;;21.90;99.90;;;22.16;70.62;101521.44;4824698;29;20054;-66
2022/08/22 07:00:05;;;;;;;18.85;8.23;;;21.70;99.90;;;22.43;69.30;101524.81;4825076;29;20477;-65
2022/08/22 07:02:39;;;;;;;17.80;8.05;;;22.00;99.90;;;22.44;69.46;101532.81;4824394;29;20127;-65
2022/08/22 07:05:15;;;;;;;16.85;8.05;;;22.10;99.90;;;22.22;70.39;101515.78;4824746;29;20095;-68
2022/08/22 07:07:44;;;;;;;15.65;8.15;;;22.00;99.90;;;22.05;71.87;101525.50;4824660;29;20058;-66
2022/08/22 07:10:14;;;;;;;21.42;8.82;;;21.70;99.90;;;21.99;71.99;101520.41;4824468;29;20038;-66
2022/08/22 07:12:47;;;;;;;17.40;8.88;;;21.60;99.90;;;22.17;72.26;101512.41;4824756;29;20058;-66
2022/08/22 07:15:33;;;;;;;15.63;9.25;;;21.70;99.90;;;22.36;71.30;101516.09;4824506;29;20046;-67
2022/08/22 07:18:04;;;;;;;23.25;9.32;;;21.90;99.90;;;22.14;72.27;101499.06;4824746;29;20050;-67
2022/08/22 07:20:40;;;;;;;16.48;8.68;;;21.80;99.90;;;22.38;72.69;101514.19;4824633;29;20077;-67
2022/08/22 07:23:12;;;;;;;16.95;9.48;;;21.90;99.90;;;22.34;71.00;101519.78;4824312;29;20154;-67
2022/08/22 07:25:52;;;;;;;23.15;10.02;;;22.00;99.90;;;22.66;72.55;101516.63;4824333;29;20095;-67
2022/08/22 07:28:31;;;;;;;16.42;8.52;;;22.10;99.90;;;22.48;71.36;101406.81;4824859;29;20111;-68
2022/08/22 07:31:17;;;;;;;17.65;8.85;;;22.50;99.90;;;23.11;70.90;101516.41;4823233;29;20149;-67
2022/08/22 07:33:52;;;;;;;14.68;7.53;;;22.60;99.90;;;23.20;69.60;101511.44;4824151;29;20050;-67
2022/08/22 07:36:29;;;;;;;20.83;9.00;;;22.90;99.90;;;23.02;69.29;101517.69;4824015;29;20054;-67
2022/08/22 07:39:23;;;;;;;18.08;7.82;;;22.70;99.90;;;22.91;68.94;101517.28;4824424;29;20110;-66
2022/08/22 07:42:05;;;;;;;15.48;7.68;;;22.60;99.90;;;23.33;69.34;101516.28;4824084;29;20107;-83
2022/08/22 07:44:54;;;;;;;13.93;7.70;;;22.80;99.90;;;23.15;70.01;101513.47;4824138;29;20049;-82
2022/08/22 07:47:35;;;;;;;16.88;7.40;;;22.70;99.90;;;23.17;68.45;101518.81;4823999;29;20066;-82
2022/08/22 07:50:07;;;;;;;13.88;8.15;;;22.80;99.90;;;22.89;69.44;101510.19;4824415;29;20050;-82
2022/08/22 07:52:40;;;;;;;15.80;7.82;;;22.60;99.90;;;23.08;69.65;101521.91;4824047;29;20062;-82
2022/08/22 07:55:17;;;;;;;19.75;7.50;;;22.60;99.90;;;23.35;68.13;101523.38;4824003;29;20111;-77
2022/08/22 07:57:52;;;;;;;17.67;8.10;;;22.80;99.90;;;22.71;67.76;101516.41;4823902;29;20130;-80
2022/08/22 08:00:23;;;;;;;15.65;7.05;;;22.40;99.90;;;22.37;68.38;101500.78;4824418;29;20113;-76
2022/08/22 08:02:57;;;;;;;19.63;8.02;;;22.20;99.90;;;22.66;69.44;101523.84;4823900;29;20055;-77
2022/08/22 08:05:33;;;;;;;14.98;7.20;;;22.10;99.90;;;23.30;68.79;101517.28;4824012;29;20137;-74
2022/08/22 08:08:18;;;;;;;21.45;8.10;;;22.70;99.90;;;23.37;69.96;101509.78;4824162;29;20051;-74
2022/08/22 08:10:50;;;;;;;15.60;7.70;;;22.90;99.90;;;23.61;67.85;101517.63;4823868;29;20055;-73
2022/08/22 08:13:24;;;;;;;17.77;7.45;;;23.20;99.90;;;23.21;67.55;101515.88;4823799;29;20051;-73
2022/08/22 08:15:53;;;;;;;13.85;7.05;;;22.90;99.90;;;23.47;65.56;101519.22;4824104;29;20404;-75
2022/08/22 08:18:27;;;;;;;12.77;6.35;;;23.10;99.90;;;23.85;65.25;101520.94;4823818;29;20082;-78
2022/08/22 08:21:02;;;;;;;12.40;6.43;;;23.30;99.90;;;24.26;64.06;101522.53;4823556;29;20506;-77
2022/08/22 08:23:43;;;;;;;12.70;6.50;;;23.80;99.90;;;24.37;63.31;101522.00;4823572;29;20054;-76
2022/08/22 08:26:16;;;;;;;12.65;6.60;;;23.90;99.90;;;23.91;63.56;101513.44;4824100;29;20114;-77
2022/08/22 08:28:47;;;;;;;12.80;6.70;;;23.70;99.90;;;24.08;63.52;101518.91;4823703;29;20062;-78
2022/08/22 08:31:24;;;;;;;11.80;6.70;;;23.60;99.90;;;23.83;62.04;101518.34;4822594;29;20408;-77
2022/08/22 08:34:03;;;;;;;13.40;5.90;;;23.50;99.90;;;23.98;62.44;101506.75;4823606;29;20046;-77
2022/08/22 08:36:47;;;;;;;12.90;5.70;;;23.50;99.90;;;24.29;62.47;101519.69;4823817;29;20074;-78
2022/08/22 08:39:22;;;;;;;15.15;6.45;;;23.70;99.90;;;23.83;60.22;101517.44;4824075;29;20111;-78
2022/08/22 08:43:25;;;;;;;17.75;6.35;;;23.50;99.90;;;24.14;61.32;101509.59;4823450;29;20103;-78
2022/08/22 08:46:13;;;;;;;15.43;6.75;;;23.60;99.90;;;24.43;60.92;101500.03;4823296;29;20078;-76
2022/08/22 08:49:27;;;;;;;13.77;5.68;;;23.90;99.90;;;24.18;60.28;101503.09;4811548;29;20062;-77
2022/08/22 08:52:33;;;;;;;14.60;6.95;;;23.90;99.90;;;24.02;61.54;101496.72;4826061;29;20073;-77
2022/08/22 08:55:19;;;;;;;14.55;6.07;;;23.60;99.90;;;23.87;60.31;101487.50;4826536;29;20130;-79
2022/08/22 08:58:15;;;;;;;13.38;6.57;;;23.50;99.90;;;23.87;59.97;101500.13;4826817;29;20107;-79
2022/08/22 09:01:06;;;;;;;16.83;6.82;;;23.50;99.90;;;23.93;59.95;101506.13;4825572;29;20527;-78
2022/08/22 09:04:16;;;;;;;13.93;5.93;;;23.40;99.90;;;24.53;57.89;101520.22;4826623;29;20086;-79
2022/08/22 09:07:44;;;;;;;12.80;6.10;;;23.90;99.90;;;24.43;57.99;101513.56;4826626;29;20051;-79
2022/08/22 09:10:34;;;;;;;15.25;5.88;;;23.80;99.90;;;24.09;57.62;101499.03;4746475;30;20060;-79
2022/08/22 09:13:44;;;;;;;14.15;5.03;;;23.90;99.90;;;24.23;55.93;101501.06;4755407;30;20056;-79
2022/08/22 09:16:46;;;;;;;14.48;5.72;;;23.80;99.90;;;23.95;55.81;101501.53;4821356;29;20054;-78
2022/08/22 09:20:09;;;;;;;14.05;5.78;;;23.70;99.90;;;23.80;57.34;101498.69;4826164;29;20074;-79
2022/08/22 09:23:35;;;;;;;14.57;5.20;;;23.50;99.90;;;23.63;56.91;101493.25;4826398;29;20061;-79
2022/08/22 09:26:09;;;;;;;13.25;5.93;;;23.20;99.90;;;23.78;56.81;101498.78;4825098;29;20054;-79
2022/08/22 09:28:44;;;;;;;10.18;5.07;;;23.30;99.90;;;23.81;57.53;101492.34;4826055;29;20082;-78
2022/08/22 09:31:34;;;;;;;14.75;5.68;;;23.40;99.90;;;24.11;57.03;101489.03;4826603;29;20054;-79
2022/08/22 09:34:27;;;;;;;13.40;5.88;;;23.60;99.90;;;23.84;57.40;101482.25;4826466;29;20133;-78
2022/08/22 09:37:18;;;;;;;11.77;5.20;;;23.40;99.90;;;24.29;59.01;101480.94;4826493;29;20050;-79
2022/08/22 09:40:00;;;;;;;11.48;5.70;;;23.70;99.90;;;24.50;56.99;101485.22;4825934;29;20429;-78
2022/08/22 09:42:39;;;;;;;11.45;5.72;;;24.10;99.90;;;23.97;58.13;101482.50;4826324;29;20106;-78
2022/08/22 09:45:50;;;;;;;10.65;5.50;;;23.70;99.90;;;24.05;58.49;101478.53;4825772;29;20074;-78
2022/08/22 09:48:43;;;;;;;14.50;5.80;;;23.50;99.90;;;24.22;57.37;101477.66;4825619;29;20046;-77
2022/08/22 09:51:33;;;;;;;13.00;5.68;;;23.70;99.90;;;24.02;58.59;101475.09;4825641;29;20420;-77
2022/08/22 09:54:25;;;;;;;14.07;6.10;;;23.60;99.90;;;23.58;58.23;101463.72;4825671;29;20103;-78
2022/08/22 09:57:20;;;;;;;14.05;5.88;;;23.20;99.90;;;24.00;58.67;101464.31;4825940;29;20058;-78
2022/08/22 10:00:23;;;;;;;14.10;6.15;;;23.50;99.90;;;24.10;59.04;101464.75;4824900;29;20050;-80
2022/08/22 10:03:10;;;;;;;13.65;6.05;;;23.50;99.90;;;23.92;57.59;101457.56;4822424;29;20073;-78
2022/08/22 10:05:45;;;;;;;18.40;6.70;;;23.60;99.90;;;24.40;58.63;101470.44;4825522;29;20054;-80
2022/08/22 10:08:38;;;;;;;19.10;5.88;;;23.90;99.90;;;24.69;57.25;101475.19;4824540;29;20568;-78
2022/08/22 10:11:21;;;;;;;11.40;5.93;;;24.10;99.90;;;24.79;53.95;101476.50;4825522;29;20054;-78
2022/08/22 10:14:01;;;;;;;16.42;5.70;;;24.40;99.90;;;24.71;53.59;101467.88;4825695;29;20409;-78
2022/08/22 10:17:02;;;;;;;15.82;5.53;;;24.30;99.90;;;25.23;56.07;101468.63;4825631;29;20058;-78
2022/08/22 10:19:41;;;;;;;19.52;6.35;;;24.60;99.90;;;25.00;54.71;101467.19;4825650;29;20057;-77
2022/08/22 10:22:33;;;;;;;13.82;6.63;;;24.60;99.90;;;25.35;53.96;101465.25;4825302;29;20152;-78
2022/08/22 10:25:32;;;;;;;15.15;6.82;;;24.80;99.90;;;25.40;53.05;101463.19;4824170;29;20099;-78
2022/08/22 10:28:19;;;;;;;13.20;5.82;;;25.20;99.90;;;25.73;53.05;101458.56;4825172;29;20051;-77
2022/08/22 10:31:06;;;;;;;15.20;5.80;;;25.40;99.90;;;25.65;53.11;101466.25;4825414;29;20054;-78
2022/08/22 10:33:43;;;;;;;13.77;5.55;;;25.30;99.90;;;24.79;55.13;101466.53;4825038;29;20413;-78
2022/08/22 10:36:16;;;;;;;16.33;6.30;;;24.60;99.90;;;25.08;53.35;101469.50;4825269;29;20121;-78
2022/08/22 10:38:51;;;;;;;15.75;5.25;;;24.60;99.90;;;25.21;53.09;101471.44;4825308;29;20058;-78
2022/08/22 10:41:30;;;;;;;11.10;5.30;;;24.80;99.90;;;25.20;52.34;101452.56;4825129;29;20058;-78
2022/08/22 10:44:10;;;;;;;13.30;5.07;;;24.80;99.90;;;25.55;53.78;101467.75;4824745;29;20046;-78
2022/08/22 10:46:47;;;;;;;13.18;4.90;;;25.00;99.90;;;25.45;53.42;101461.09;4825185;29;20058;-78
2022/08/22 10:49:24;;;;;;;11.63;5.45;;;25.10;99.90;;;25.41;53.17;101463.13;4824855;29;20047;-78
2022/08/22 10:52:02;;;;;;;10.32;4.25;;;25.00;99.90;;;25.84;50.68;101472.38;4824863;29;20050;-79
2022/08/22 10:54:48;;;;;;;10.30;3.90;;;25.40;99.90;;;26.13;48.25;101468.84;4824942;29;20141;-79
2022/08/22 10:57:37;;;;;;;11.50;4.10;;;25.70;99.90;;;26.48;48.01;101470.31;4825360;29;20046;-79
2022/08/22 11:00:17;;;;;;;11.18;4.90;;;26.10;99.90;;;26.54;47.25;101472.66;4824926;29;20054;-78
2022/08/22 11:03:04;;;;;;;10.63;4.78;;;26.10;99.90;;;25.92;46.19;101470.06;4824775;29;20058;-78
2022/08/22 11:05:42;;;;;;;10.27;4.35;;;25.80;99.90;;;26.04;46.49;101461.22;4824626;29;20133;-78
2022/08/22 11:08:32;;;;;;;11.23;4.53;;;25.60;99.90;;;25.97;47.18;101467.09;4825171;29;20099;-79
2022/08/22 11:11:14;;;;;;;6.88;4.25;;;25.60;99.90;;;26.07;45.82;101463.81;4824515;29;20065;-68
2022/08/22 11:14:28;;;;;;;9.40;4.30;;;25.60;99.90;;;26.45;44.44;101469.63;4824454;29;20042;-67
2022/08/22 11:17:19;;;;;;;10.65;4.20;;;25.90;99.90;;;26.91;43.91;101474.03;4824620;29;20050;-65